Time;durP1;ratioP1;P1;durP2;ratioP2;P2;SDS_P1;SDS_P2;PMS_P1;PMS_P2;Temp;Humidity;BMP_temperature;BMP_pressure;BME280_temperature;BME280_humidity;BME280_pressure;Samples;Min_cycle;Max_cycle;Signal;HPM_P1;HPM_P2
2023/07/09 04:02:26;;;;;;;2.77;2.67;;;17.60;99.90;;;;;;5079627;23;20592;-70
2023/07/09 04:04:53;;;;;;;2.70;2.60;;;17.60;99.90;;;;;;4992246;28;20474;-71
2023/07/09 04:07:20;;;;;;;2.77;2.57;;;17.60;99.90;;;;;;4991128;28;20833;-71
2023/07/09 04:09:47;;;;;;;3.43;2.30;;;17.60;99.90;;;;;;4991769;28;20489;-71
2023/07/09 04:12:13;;;;;;;3.00;2.80;;;17.60;99.90;;;;;;4992437;28;20486;-70
2023/07/09 04:14:41;;;;;;;2.80;2.67;;;17.70;99.90;;;;;;4991770;28;20482;-71
2023/07/09 04:17:08;;;;;;;2.40;2.30;;;17.60;99.90;;;;;;4992622;28;20525;-71
2023/07/09 04:19:36;;;;;;;3.10;3.00;;;17.70;99.90;;;;;;4993157;28;20478;-71
2023/07/09 04:22:02;;;;;;;2.67;2.57;;;17.70;99.90;;;;;;4992527;28;20494;-70
2023/07/09 04:24:30;;;;;;;2.30;2.20;;;17.70;99.90;;;;;;4991659;28;20858;-71
2023/07/09 04:26:57;;;;;;;3.10;2.83;;;17.80;99.90;;;;;;4992607;28;20467;-71
2023/07/09 04:29:24;;;;;;;2.23;2.23;;;17.90;99.90;;;;;;4991619;28;20490;-71
2023/07/09 04:31:50;;;;;;;2.50;2.30;;;18.30;99.90;;;;;;4992264;28;20487;-71
2023/07/09 04:34:17;;;;;;;2.50;2.40;;;18.70;99.90;;;;;;4995958;28;20834;-71
2023/07/09 04:36:45;;;;;;;3.23;3.03;;;19.30;99.90;;;;;;4992046;28;20474;-71
2023/07/09 04:39:12;;;;;;;1.90;1.87;;;19.90;99.90;;;;;;4991553;28;20506;-72
2023/07/09 04:41:38;;;;;;;2.20;2.10;;;20.50;99.90;;;;;;4991455;28;21102;-72
2023/07/09 04:44:05;;;;;;;7.37;2.70;;;20.90;99.90;;;;;;4998132;28;20468;-72
2023/07/09 04:46:32;;;;;;;2.60;2.53;;;21.40;99.90;;;;;;5010392;28;20476;-71
2023/07/09 04:49:00;;;;;;;2.03;2.03;;;21.80;99.90;;;;;;5011157;28;20555;-71
2023/07/09 04:51:26;;;;;;;2.17;2.17;;;22.30;99.90;;;;;;5010356;28;20994;-71
2023/07/09 04:53:55;;;;;;;2.20;2.10;;;22.70;99.90;;;;;;5011001;28;20475;-71
2023/07/09 04:56:22;;;;;;;1.90;1.90;;;23.00;99.90;;;;;;5010425;28;20469;-71
2023/07/09 04:58:49;;;;;;;2.30;2.23;;;23.10;99.90;;;;;;5010862;28;20485;-71
2023/07/09 05:01:16;;;;;;;2.20;2.17;;;23.50;99.90;;;;;;5010309;28;20550;-71
2023/07/09 05:03:42;;;;;;;2.00;1.90;;;23.70;99.90;;;;;;5011126;28;20464;-71
2023/07/09 05:06:09;;;;;;;2.50;2.50;;;23.80;99.90;;;;;;5010782;28;20467;-71
2023/07/09 05:08:36;;;;;;;2.40;2.40;;;24.10;99.90;;;;;;5010840;28;21005;-71
2023/07/09 05:11:04;;;;;;;1.90;1.90;;;24.40;99.90;;;;;;5010167;28;21031;-71
2023/07/09 05:13:31;;;;;;;2.77;2.57;;;24.50;99.90;;;;;;5010662;28;20483;-70
2023/07/09 05:15:57;;;;;;;1.83;1.83;;;24.70;99.90;;;;;;5010156;28;20846;-71
2023/07/09 05:18:24;;;;;;;2.00;1.90;;;25.00;99.90;;;;;;5010854;28;20835;-70
2023/07/09 05:20:51;;;;;;;1.90;1.90;;;25.30;99.90;;;;;;5010233;28;20486;-70
2023/07/09 05:23:18;;;;;;;1.63;1.63;;;25.40;99.90;;;;;;5010491;28;20466;-69
2023/07/09 05:25:45;;;;;;;2.53;2.53;;;25.80;99.90;;;;;;5010294;28;20485;-69
2023/07/09 05:28:13;;;;;;;1.23;1.23;;;26.00;99.90;;;;;;5010499;28;20496;-70
2023/07/09 05:30:42;;;;;;;1.50;1.50;;;26.40;99.90;;;;;;5009810;28;20506;-70
2023/07/09 05:33:09;;;;;;;2.00;2.00;;;26.70;99.90;;;;;;5010345;28;20954;-70
2023/07/09 05:35:36;;;;;;;1.73;1.73;;;26.70;99.90;;;;;;5009932;28;20473;-69
2023/07/09 05:38:02;;;;;;;1.40;1.40;;;27.10;99.90;;;;;;5009838;28;20486;-69
2023/07/09 05:40:30;;;;;;;1.73;1.73;;;27.40;99.90;;;;;;5009238;28;20499;-70
2023/07/09 05:42:56;;;;;;;1.43;1.43;;;27.60;99.90;;;;;;5000281;28;20802;-70
2023/07/09 05:45:24;;;;;;;1.77;1.77;;;27.80;99.90;;;;;;5009404;28;20458;-70
2023/07/09 05:47:51;;;;;;;1.43;1.43;;;27.90;99.90;;;;;;5009709;28;20466;-70
2023/07/09 05:50:18;;;;;;;1.40;1.40;;;27.90;99.90;;;;;;5010074;28;20461;-69
2023/07/09 05:52:45;;;;;;;2.03;2.00;;;27.60;99.90;;;;;;5009723;28;20470;-69
2023/07/09 05:55:12;;;;;;;2.10;2.10;;;27.30;99.90;;;;;;5009233;28;20621;-69
2023/07/09 05:57:39;;;;;;;2.20;2.10;;;26.90;99.90;;;;;;5009857;28;20835;-70
2023/07/09 06:00:08;;;;;;;2.00;2.00;;;26.10;99.90;;;;;;5009023;28;20461;-70
2023/07/09 06:02:37;;;;;;;1.80;1.80;;;26.00;99.90;;;;;;5011416;28;21015;-70
2023/07/09 06:05:04;;;;;;;2.20;2.20;;;26.00;99.90;;;;;;5013078;28;20846;-70
2023/07/09 06:07:30;;;;;;;1.70;1.70;;;26.40;99.90;;;;;;5013168;28;20465;-69
2023/07/09 06:09:58;;;;;;;2.50;2.40;;;26.90;99.90;;;;;;5012698;28;20457;-70
2023/07/09 06:12:25;;;;;;;1.97;1.97;;;27.30;99.90;;;;;;5014254;28;20509;-70
2023/07/09 06:14:52;;;;;;;1.70;1.70;;;27.40;99.90;;;;;;5012546;28;20457;-70
2023/07/09 06:17:19;;;;;;;2.07;1.97;;;27.40;99.90;;;;;;5013097;28;20462;-70
2023/07/09 06:19:47;;;;;;;1.87;1.87;;;27.70;99.90;;;;;;5012878;28;20497;-70
2023/07/09 06:22:14;;;;;;;2.37;2.20;;;28.00;99.90;;;;;;5012767;28;20494;-70
2023/07/09 06:24:41;;;;;;;1.63;1.63;;;28.00;99.90;;;;;;5012163;28;20466;-69
2023/07/09 06:27:07;;;;;;;1.70;1.70;;;28.00;99.90;;;;;;5013011;28;20477;-69
2023/07/09 06:29:34;;;;;;;1.73;1.73;;;27.90;99.90;;;;;;5012263;28;20912;-69
2023/07/09 06:32:01;;;;;;;2.03;2.03;;;28.20;99.90;;;;;;5012662;28;20516;-70
2023/07/09 06:34:28;;;;;;;2.20;2.20;;;28.10;99.90;;;;;;5012150;28;20836;-70
2023/07/09 06:36:57;;;;;;;2.20;2.20;;;28.40;99.90;;;;;;5012501;28;20465;-69
2023/07/09 06:39:24;;;;;;;2.60;2.47;;;28.50;99.90;;;;;;5012423;28;20687;-69
2023/07/09 06:41:51;;;;;;;1.90;1.90;;;28.50;99.90;;;;;;5012663;28;21027;-70
2023/07/09 06:44:17;;;;;;;1.60;1.60;;;28.50;99.90;;;;;;5007138;28;20462;-70
2023/07/09 06:46:45;;;;;;;1.83;1.83;;;28.80;99.90;;;;;;4995128;28;20459;-69
2023/07/09 06:49:12;;;;;;;1.67;1.67;;;29.10;99.90;;;;;;4992716;28;20596;-69
2023/07/09 06:51:39;;;;;;;1.97;1.97;;;29.60;99.50;;;;;;4992821;28;20483;-69
2023/07/09 06:54:08;;;;;;;1.77;1.77;;;29.60;99.40;;;;;;4992517;28;20463;-70
2023/07/09 06:56:35;;;;;;;2.07;1.97;;;29.70;99.30;;;;;;4992332;28;20467;-70
2023/07/09 06:59:01;;;;;;;1.80;1.80;;;29.90;99.20;;;;;;4992871;28;20510;-70
2023/07/09 07:01:28;;;;;;;2.70;2.60;;;29.90;99.00;;;;;;4992191;28;20506;-69
2023/07/09 07:03:55;;;;;;;1.67;1.67;;;29.80;99.40;;;;;;4992536;28;20833;-69
2023/07/09 07:06:22;;;;;;;1.60;1.60;;;29.70;98.90;;;;;;4992498;28;20471;-70
2023/07/09 07:08:49;;;;;;;1.80;1.80;;;29.70;99.00;;;;;;4993030;28;20546;-70
2023/07/09 07:11:17;;;;;;;1.57;1.57;;;30.00;98.80;;;;;;4991865;28;20486;-70
2023/07/09 07:13:46;;;;;;;1.90;1.90;;;30.30;99.00;;;;;;4991727;28;20471;-70
2023/07/09 07:16:13;;;;;;;2.13;2.13;;;30.40;98.90;;;;;;4991497;28;20463;-70
2023/07/09 07:18:40;;;;;;;2.20;2.20;;;30.80;98.80;;;;;;4992407;28;20486;-70
2023/07/09 07:21:11;;;;;;;1.67;1.67;;;31.00;98.20;;;;;;4992071;28;21062;-70
2023/07/09 07:23:38;;;;;;;1.83;1.80;;;31.10;97.60;;;;;;4992979;28;20561;-70
2023/07/09 07:26:04;;;;;;;2.30;2.20;;;30.90;98.10;;;;;;4991556;28;20470;-70
2023/07/09 07:28:35;;;;;;;2.13;2.13;;;30.80;98.20;;;;;;4992215;28;20470;-71
2023/07/09 07:31:02;;;;;;;1.93;1.93;;;31.00;97.80;;;;;;4991554;28;20489;-70
2023/07/09 07:33:29;;;;;;;2.00;2.00;;;31.10;98.00;;;;;;4992628;28;20467;-70
2023/07/09 07:35:56;;;;;;;2.00;2.00;;;31.10;97.30;;;;;;4992144;28;20475;-70
2023/07/09 07:38:22;;;;;;;2.57;2.47;;;31.10;97.50;;;;;;4991978;28;20497;-69
2023/07/09 07:40:49;;;;;;;1.90;1.83;;;31.20;97.60;;;;;;4991452;28;20875;-70
2023/07/09 07:43:16;;;;;;;1.80;1.80;;;31.50;97.40;;;;;;4994126;28;20466;-70
2023/07/09 07:45:45;;;;;;;1.70;1.70;;;31.50;97.00;;;;;;5011024;28;20469;-70
2023/07/09 07:48:11;;;;;;;1.93;1.93;;;31.70;97.10;;;;;;5011594;28;20466;-70
2023/07/09 07:50:39;;;;;;;2.33;2.33;;;32.00;96.90;;;;;;5011444;28;20489;-70
2023/07/09 07:53:07;;;;;;;2.07;2.07;;;32.40;96.90;;;;;;5011585;28;20462;-71
2023/07/09 07:55:35;;;;;;;1.77;1.77;;;32.60;96.10;;;;;;5010934;28;20466;-69
2023/07/09 07:58:03;;;;;;;2.70;2.60;;;32.70;96.20;;;;;;5011364;28;20462;-71
2023/07/09 08:00:30;;;;;;;1.97;1.97;;;32.30;95.60;;;;;;5010943;28;20556;-70
2023/07/09 08:02:58;;;;;;;2.33;2.33;;;32.00;95.90;;;;;;5011536;28;20485;-69
2023/07/09 08:05:25;;;;;;;1.90;1.80;;;32.10;96.00;;;;;;5011138;28;20462;-70
2023/07/09 08:07:52;;;;;;;2.50;2.50;;;32.00;96.60;;;;;;5011320;28;20521;-70
2023/07/09 08:10:19;;;;;;;2.17;2.17;;;31.90;96.60;;;;;;5010882;28;20463;-69
2023/07/09 08:12:45;;;;;;;2.40;2.40;;;31.80;96.10;;;;;;5011723;28;20466;-70
2023/07/09 08:15:12;;;;;;;2.00;2.00;;;31.80;96.20;;;;;;5010834;28;20458;-71
2023/07/09 08:17:39;;;;;;;2.37;2.37;;;31.90;96.30;;;;;;5011522;28;20902;-69
2023/07/09 08:20:09;;;;;;;2.40;2.30;;;31.80;96.40;;;;;;5011363;28;21008;-70
2023/07/09 08:22:36;;;;;;;2.30;2.30;;;32.10;96.70;;;;;;5011552;28;20493;-70
2023/07/09 08:25:02;;;;;;;1.83;1.83;;;32.00;96.20;;;;;;5010433;28;20466;-70
2023/07/09 08:27:29;;;;;;;2.47;2.47;;;31.90;95.40;;;;;;5011299;28;20588;-70
2023/07/09 08:29:56;;;;;;;2.00;2.00;;;31.60;96.70;;;;;;5012792;28;20878;-69
2023/07/09 08:32:22;;;;;;;2.40;2.30;;;31.50;95.90;;;;;;5013985;28;20518;-70
2023/07/09 08:34:49;;;;;;;2.10;2.10;;;31.60;96.50;;;;;;5013258;28;20469;-70
2023/07/09 08:37:17;;;;;;;2.40;2.40;;;31.70;96.20;;;;;;5011954;28;20462;-69
2023/07/09 08:39:44;;;;;;;2.30;2.30;;;31.90;95.60;;;;;;5011627;28;20493;-70
2023/07/09 08:42:14;;;;;;;2.13;2.13;;;32.10;95.70;;;;;;5009741;28;20483;-70
2023/07/09 08:45:02;;;;;;;2.50;2.50;;;32.40;95.70;;;;;;5008689;28;20462;-70
2023/07/09 08:47:36;;;;;;;2.20;2.20;;;32.40;95.70;;;;;;5010738;28;20470;-70
2023/07/09 08:50:08;;;;;;;3.10;3.10;;;32.50;95.90;;;;;;5010562;28;20459;-70
2023/07/09 08:52:38;;;;;;;2.00;2.00;;;32.60;94.80;;;;;;5010568;28;20585;-70
2023/07/09 08:55:08;;;;;;;2.13;2.13;;;32.30;95.10;;;;;;5010187;28;20548;-70
2023/07/09 08:57:39;;;;;;;2.13;2.13;;;32.10;95.20;;;;;;5010825;28;20466;-70
2023/07/09 09:00:14;;;;;;;2.23;2.23;;;31.90;94.70;;;;;;5009967;28;20832;-69
2023/07/09 09:02:47;;;;;;;2.30;2.30;;;31.90;95.80;;;;;;5010929;28;20474;-70
2023/07/09 09:05:18;;;;;;;1.93;1.93;;;31.90;95.60;;;;;;5010282;28;20482;-69
2023/07/09 09:07:51;;;;;;;2.30;2.30;;;31.80;95.50;;;;;;5010400;28;20989;-70
2023/07/09 09:10:21;;;;;;;2.60;2.60;;;31.60;95.90;;;;;;5009827;28;20458;-70
2023/07/09 09:13:04;;;;;;;2.87;2.77;;;31.60;96.40;;;;;;5010266;28;20457;-69
2023/07/09 09:15:32;;;;;;;2.70;2.70;;;31.80;96.60;;;;;;5009826;28;20577;-70
2023/07/09 09:18:11;;;;;;;3.00;2.90;;;32.00;95.80;;;;;;5010135;28;20507;-70
2023/07/09 09:20:38;;;;;;;2.50;2.50;;;31.90;95.70;;;;;;5009924;28;20489;-69
2023/07/09 09:23:14;;;;;;;3.47;3.37;;;31.80;95.10;;;;;;5010399;28;20473;-70
2023/07/09 09:25:45;;;;;;;2.53;2.43;;;31.70;95.90;;;;;;5010185;28;20477;-70
2023/07/09 09:28:13;;;;;;;2.77;2.77;;;31.60;96.10;;;;;;5010371;28;20470;-70
2023/07/09 09:30:40;;;;;;;2.90;2.90;;;31.40;95.90;;;;;;5009887;28;20478;-70
2023/07/09 09:33:09;;;;;;;2.93;2.80;;;31.30;96.50;;;;;;5010025;28;20962;-69
2023/07/09 09:35:38;;;;;;;3.77;3.57;;;31.40;95.10;;;;;;5009802;28;20569;-70
2023/07/09 09:38:12;;;;;;;3.43;3.33;;;31.30;96.00;;;;;;5012484;28;20569;-70
2023/07/09 09:40:39;;;;;;;4.13;3.93;;;31.40;96.70;;;;;;5013720;28;20501;-69
2023/07/09 09:43:13;;;;;;;3.60;3.50;;;31.30;95.50;;;;;;5005265;28;20489;-71
2023/07/09 09:45:42;;;;;;;2.90;2.90;;;31.20;95.50;;;;;;4993705;28;20458;-69
2023/07/09 09:48:15;;;;;;;2.80;2.70;;;31.10;95.80;;;;;;4994721;28;20484;-69
2023/07/09 09:50:43;;;;;;;2.83;2.83;;;31.20;96.40;;;;;;4994542;28;20489;-69
2023/07/09 09:53:21;;;;;;;2.70;2.70;;;31.20;95.60;;;;;;4994028;28;20463;-69
2023/07/09 09:55:48;;;;;;;3.53;3.43;;;31.20;95.40;;;;;;4993635;28;20462;-69
2023/07/09 09:58:17;;;;;;;4.50;3.50;;;31.10;95.40;;;;;;4993658;28;20517;-69
2023/07/09 10:00:51;;;;;;;3.20;3.10;;;31.10;95.40;;;;;;4993210;28;20486;-69
2023/07/09 10:03:18;;;;;;;2.70;2.70;;;31.10;95.60;;;;;;4994138;28;20561;-69
2023/07/09 10:05:52;;;;;;;3.10;3.00;;;31.10;95.40;;;;;;4993441;28;20982;-69
2023/07/09 10:08:30;;;;;;;3.50;3.40;;;31.10;96.20;;;;;;4993731;28;20530;-70
2023/07/09 10:11:08;;;;;;;4.43;4.23;;;31.20;95.90;;;;;;4993203;28;20831;-70
2023/07/09 10:13:39;;;;;;;3.23;3.13;;;31.30;95.90;;;;;;4993862;28;20465;-69
2023/07/09 10:16:09;;;;;;;3.10;3.00;;;31.40;94.70;;;;;;4992964;28;20467;-70
2023/07/09 10:18:48;;;;;;;3.27;3.17;;;31.40;94.70;;;;;;4993878;28;20823;-69
2023/07/09 10:21:19;;;;;;;3.73;3.63;;;31.60;95.20;;;;;;4994342;28;20844;-70
2023/07/09 10:23:59;;;;;;;3.50;3.40;;;31.60;94.40;;;;;;4993304;28;20903;-70
2023/07/09 10:26:30;;;;;;;3.60;3.50;;;31.60;95.40;;;;;;4992964;28;20815;-69
2023/07/09 10:29:15;;;;;;;2.47;2.40;;;31.50;94.30;;;;;;4993408;28;20486;-70
2023/07/09 10:31:48;;;;;;;3.63;3.43;;;31.50;94.30;;;;;;4993193;28;20505;-70
2023/07/09 10:34:26;;;;;;;2.30;2.30;;;31.50;94.10;;;;;;4992642;28;20463;-69
2023/07/09 10:37:14;;;;;;;4.17;3.97;;;31.60;93.90;;;;;;4993503;28;20466;-69
2023/07/09 10:39:48;;;;;;;2.90;2.90;;;31.50;93.40;;;;;;4992462;28;20490;-70
2023/07/09 10:42:21;;;;;;;3.40;3.30;;;31.60;93.80;;;;;;4992805;28;20487;-69
2023/07/09 10:44:56;;;;;;;3.13;3.03;;;31.70;93.30;;;;;;4983946;28;20490;-69
2023/07/09 10:47:30;;;;;;;3.43;3.27;;;31.70;93.90;;;;;;4992733;28;20798;-69
2023/07/09 10:49:58;;;;;;;3.73;3.63;;;31.70;93.60;;;;;;4991764;28;20465;-70
2023/07/09 10:52:30;;;;;;;3.37;3.23;;;31.80;93.80;;;;;;4992762;28;20483;-69
2023/07/09 10:55:04;;;;;;;2.87;2.87;;;31.90;91.80;;;;;;4992284;28;20569;-69
2023/07/09 10:57:40;;;;;;;3.07;2.97;;;31.90;91.60;;;;;;4992952;28;20473;-69
2023/07/09 11:00:16;;;;;;;4.17;3.93;;;32.00;92.20;;;;;;4992285;28;20501;-70
2023/07/09 11:02:44;;;;;;;2.23;2.23;;;32.00;92.00;;;;;;4992826;28;20458;-69
2023/07/09 11:05:11;;;;;;;2.73;2.73;;;32.10;91.70;;;;;;4992439;28;20510;-70
2023/07/09 11:07:43;;;;;;;2.80;2.70;;;32.10;90.90;;;;;;4992292;28;21031;-70
2023/07/09 11:10:23;;;;;;;2.80;2.70;;;32.10;90.50;;;;;;4992295;28;20455;-69
2023/07/09 11:12:59;;;;;;;5.23;2.87;;;32.20;90.10;;;;;;4992558;28;20462;-70
2023/07/09 11:15:31;;;;;;;2.73;2.73;;;32.30;91.00;;;;;;4991766;28;20459;-69
2023/07/09 11:17:59;;;;;;;2.93;2.83;;;32.30;90.60;;;;;;4992441;28;20808;-69
2023/07/09 11:20:32;;;;;;;2.47;2.43;;;32.30;90.90;;;;;;4992613;28;20581;-70
2023/07/09 11:23:04;;;;;;;2.27;2.20;;;32.40;90.10;;;;;;4992454;28;20462;-70
2023/07/09 11:25:44;;;;;;;2.00;2.00;;;32.40;90.30;;;;;;4991952;28;20825;-69
2023/07/09 11:28:11;;;;;;;3.20;3.10;;;32.30;90.40;;;;;;4992217;28;20467;-69
2023/07/09 11:30:49;;;;;;;2.73;2.63;;;32.30;90.50;;;;;;4991494;28;20475;-70
2023/07/09 11:33:18;;;;;;;3.80;3.63;;;32.40;90.60;;;;;;4992510;28;20459;-69
2023/07/09 11:35:48;;;;;;;2.83;2.73;;;32.40;90.40;;;;;;4991845;28;20462;-70
2023/07/09 11:38:19;;;;;;;2.57;2.47;;;32.50;87.90;;;;;;4992304;28;20458;-69
2023/07/09 11:40:52;;;;;;;3.07;2.53;;;32.70;83.60;;;;;;4991379;28;20502;-69
2023/07/09 11:43:32;;;;;;;4.50;2.30;;;32.70;84.70;;;;;;5000654;28;20787;-69
2023/07/09 11:46:06;;;;;;;2.73;2.53;;;32.70;85.40;;;;;;4991234;28;20462;-69
2023/07/09 11:48:35;;;;;;;2.60;2.50;;;32.80;85.40;;;;;;4992210;28;20467;-70
2023/07/09 11:51:11;;;;;;;1.93;1.90;;;32.90;85.30;;;;;;4991866;28;20541;-69
2023/07/09 11:53:44;;;;;;;2.80;2.70;;;32.80;84.50;;;;;;4992275;28;20469;-69
2023/07/09 11:56:12;;;;;;;2.37;2.37;;;32.90;85.70;;;;;;4991518;28;20598;-70
2023/07/09 11:58:49;;;;;;;2.60;2.50;;;33.00;86.40;;;;;;4992173;28;20462;-70
2023/07/09 12:01:19;;;;;;;2.63;2.53;;;33.10;87.10;;;;;;4991141;28;20871;-69
2023/07/09 12:03:47;;;;;;;3.00;2.90;;;33.10;85.90;;;;;;4991821;28;20485;-70
2023/07/09 12:06:21;;;;;;;2.60;2.60;;;33.20;85.00;;;;;;4991952;28;20813;-69
2023/07/09 12:08:50;;;;;;;3.20;2.23;;;33.30;84.10;;;;;;4992034;28;20466;-69
2023/07/09 12:11:23;;;;;;;2.20;2.20;;;33.40;85.50;;;;;;4991800;28;20483;-69
2023/07/09 12:13:50;;;;;;;2.50;2.40;;;33.50;85.00;;;;;;4992344;28;20495;-70
2023/07/09 12:16:27;;;;;;;2.63;2.53;;;33.40;83.80;;;;;;4991355;28;20471;-69
2023/07/09 12:18:54;;;;;;;2.57;2.47;;;33.30;83.20;;;;;;4992319;28;20473;-70
2023/07/09 12:21:21;;;;;;;2.33;2.20;;;33.30;83.30;;;;;;4992101;28;20771;-70
2023/07/09 12:23:48;;;;;;;2.90;2.80;;;33.40;83.40;;;;;;4992200;28;20545;-70
2023/07/09 12:26:17;;;;;;;2.60;2.50;;;33.40;81.50;;;;;;4991331;28;20474;-70
2023/07/09 12:28:51;;;;;;;2.63;2.63;;;33.50;83.20;;;;;;4991908;28;20482;-70
2023/07/09 12:31:18;;;;;;;2.10;2.10;;;33.40;83.70;;;;;;4992568;28;20544;-70
2023/07/09 12:33:49;;;;;;;2.60;2.50;;;33.30;83.10;;;;;;4998540;28;20463;-69
2023/07/09 12:36:18;;;;;;;3.03;2.93;;;33.20;84.50;;;;;;4999919;28;20624;-70
2023/07/09 12:38:50;;;;;;;2.50;2.50;;;33.10;85.50;;;;;;4995164;28;20517;-70
2023/07/09 12:41:21;;;;;;;2.00;2.00;;;33.10;82.20;;;;;;4990754;28;20495;-69
2023/07/09 12:43:50;;;;;;;2.57;2.47;;;33.10;82.80;;;;;;4991373;28;20493;-70
2023/07/09 12:46:17;;;;;;;2.63;2.63;;;33.20;84.00;;;;;;4990773;28;20467;-70
2023/07/09 12:48:46;;;;;;;2.80;2.73;;;33.20;82.50;;;;;;4991387;28;20477;-70
2023/07/09 12:51:16;;;;;;;2.50;2.50;;;33.30;82.20;;;;;;4991062;28;20490;-70
2023/07/09 12:53:43;;;;;;;2.70;2.70;;;33.40;82.50;;;;;;4991293;28;20467;-70
2023/07/09 12:56:14;;;;;;;3.00;2.90;;;33.40;82.40;;;;;;4990729;28;20469;-70
2023/07/09 12:58:41;;;;;;;2.60;2.50;;;33.40;83.80;;;;;;4991355;28;20891;-70
2023/07/09 13:01:16;;;;;;;2.30;2.30;;;33.50;85.20;;;;;;4990458;28;20518;-70
2023/07/09 13:03:43;;;;;;;2.43;2.43;;;33.60;81.30;;;;;;4991641;28;20489;-70
2023/07/09 13:06:29;;;;;;;2.27;2.27;;;33.60;82.50;;;;;;4990744;28;20463;-70
2023/07/09 13:08:58;;;;;;;2.17;2.17;;;33.70;82.20;;;;;;4991447;28;20462;-70
2023/07/09 13:11:26;;;;;;;4.40;2.67;;;33.80;82.40;;;;;;4990197;28;20510;-70
2023/07/09 13:13:57;;;;;;;2.33;2.33;;;33.80;84.20;;;;;;4991945;28;20502;-70
2023/07/09 13:16:25;;;;;;;2.50;2.40;;;33.80;81.50;;;;;;4990428;28;20463;-70
2023/07/09 13:18:52;;;;;;;2.17;2.13;;;33.70;81.80;;;;;;4990788;28;20478;-70
2023/07/09 13:21:21;;;;;;;2.90;2.80;;;33.60;80.20;;;;;;4990900;28;20502;-69
2023/07/09 13:23:48;;;;;;;2.90;2.80;;;33.70;81.20;;;;;;4991043;28;20787;-70
2023/07/09 13:26:16;;;;;;;2.30;2.30;;;33.70;82.00;;;;;;4990038;28;20470;-70
2023/07/09 13:28:45;;;;;;;2.30;2.20;;;33.90;84.60;;;;;;4991092;28;20470;-70
2023/07/09 13:31:15;;;;;;;2.73;2.63;;;34.00;81.40;;;;;;4989997;28;20535;-70
2023/07/09 13:33:44;;;;;;;2.10;2.03;;;34.00;81.90;;;;;;4990903;28;20485;-70
2023/07/09 13:36:11;;;;;;;2.80;2.60;;;34.00;83.00;;;;;;4990096;28;20477;-69
2023/07/09 13:38:38;;;;;;;2.63;2.60;;;34.10;82.10;;;;;;4990815;28;20466;-70
2023/07/09 13:41:12;;;;;;;2.90;2.70;;;34.10;82.10;;;;;;4990057;28;20495;-70
2023/07/09 13:43:46;;;;;;;2.37;2.37;;;34.10;83.00;;;;;;5000835;28;20872;-69
2023/07/09 13:46:12;;;;;;;2.33;2.30;;;34.10;82.70;;;;;;5009559;28;20462;-70
2023/07/09 13:48:41;;;;;;;2.47;2.37;;;34.00;82.00;;;;;;5010261;28;20470;-70
2023/07/09 13:51:16;;;;;;;2.20;2.20;;;34.10;82.60;;;;;;5010057;28;20489;-70
2023/07/09 13:53:43;;;;;;;2.23;2.23;;;34.10;82.00;;;;;;5010267;28;20463;-69
2023/07/09 13:56:09;;;;;;;2.20;2.20;;;34.10;84.30;;;;;;5009208;28;20821;-69
2023/07/09 13:58:36;;;;;;;3.07;2.97;;;34.20;82.40;;;;;;5010287;28;20470;-70
2023/07/09 14:01:12;;;;;;;3.50;2.43;;;34.20;81.50;;;;;;5009015;28;21006;-69
2023/07/09 14:03:38;;;;;;;2.97;2.90;;;34.20;83.10;;;;;;5010178;28;20465;-70
2023/07/09 14:06:06;;;;;;;2.33;2.23;;;34.30;82.20;;;;;;5009541;28;20469;-70
2023/07/09 14:08:34;;;;;;;2.90;2.80;;;34.40;81.50;;;;;;5009844;28;20466;-70
2023/07/09 14:11:00;;;;;;;2.60;2.60;;;34.20;80.10;;;;;;5009299;28;20482;-70
2023/07/09 14:13:31;;;;;;;2.50;2.40;;;34.10;81.40;;;;;;5009991;28;20466;-70
2023/07/09 14:15:58;;;;;;;2.43;2.43;;;34.10;81.80;;;;;;5009570;28;20465;-70
2023/07/09 14:18:25;;;;;;;2.53;2.53;;;34.10;82.20;;;;;;5010008;28;20461;-70
2023/07/09 14:20:51;;;;;;;2.30;2.23;;;34.10;79.90;;;;;;5009735;28;20857;-70
2023/07/09 14:23:19;;;;;;;2.03;2.03;;;34.00;80.40;;;;;;5011943;28;20848;-69
2023/07/09 14:25:48;;;;;;;2.13;2.03;;;34.00;79.30;;;;;;5013072;28;20461;-70
2023/07/09 14:28:18;;;;;;;2.50;2.40;;;34.00;80.60;;;;;;5013533;28;20446;-70
2023/07/09 14:30:46;;;;;;;2.33;2.33;;;33.90;80.40;;;;;;5012979;28;20857;-70
2023/07/09 14:33:14;;;;;;;2.90;2.80;;;33.90;80.00;;;;;;5013477;28;20468;-70
2023/07/09 14:35:41;;;;;;;2.23;2.23;;;34.00;81.10;;;;;;5012880;28;20462;-70
2023/07/09 14:38:17;;;;;;;2.73;2.57;;;33.90;79.90;;;;;;5013375;28;20557;-70
2023/07/09 14:40:44;;;;;;;3.40;2.50;;;34.00;80.10;;;;;;5012842;28;20528;-69
2023/07/09 14:43:13;;;;;;;2.27;2.20;;;34.10;80.10;;;;;;5002691;28;20585;-69
2023/07/09 14:45:40;;;;;;;2.33;2.33;;;34.10;80.30;;;;;;4992887;28;20518;-69
2023/07/09 14:48:11;;;;;;;2.63;2.53;;;34.10;80.40;;;;;;4993406;28;20478;-70
2023/07/09 14:50:38;;;;;;;2.23;2.23;;;34.20;79.50;;;;;;4993188;28;20934;-70
2023/07/09 14:53:06;;;;;;;2.20;2.10;;;34.30;80.80;;;;;;4993486;28;20467;-70
2023/07/09 14:55:33;;;;;;;2.10;2.10;;;34.30;77.30;;;;;;4992639;28;20463;-69
2023/07/09 14:58:00;;;;;;;2.80;2.70;;;34.40;79.30;;;;;;4993397;28;20466;-70
2023/07/09 15:00:28;;;;;;;2.03;2.03;;;34.40;78.50;;;;;;4992460;28;20534;-69
2023/07/09 15:02:55;;;;;;;2.20;2.20;;;34.50;78.60;;;;;;4993033;28;20579;-70
2023/07/09 15:05:26;;;;;;;1.70;1.70;;;34.60;79.20;;;;;;4993150;28;20886;-70
2023/07/09 15:07:52;;;;;;;1.80;1.80;;;34.60;79.50;;;;;;4993123;28;20771;-70
2023/07/09 15:10:24;;;;;;;2.10;2.00;;;34.70;77.90;;;;;;4992686;28;20908;-70
2023/07/09 15:12:51;;;;;;;1.90;1.90;;;34.80;77.30;;;;;;4993304;28;20510;-70
2023/07/09 15:15:26;;;;;;;2.63;2.53;;;34.60;76.20;;;;;;4992180;28;20478;-70
2023/07/09 15:17:54;;;;;;;2.17;2.10;;;34.70;78.60;;;;;;4993236;28;20728;-70
2023/07/09 15:20:25;;;;;;;2.60;2.40;;;34.70;77.80;;;;;;4992579;28;20463;-70
2023/07/09 15:22:52;;;;;;;2.20;2.10;;;34.70;77.10;;;;;;4992858;28;20514;-69
2023/07/09 15:25:22;;;;;;;1.97;1.97;;;34.70;77.20;;;;;;4992280;28;20463;-70
2023/07/09 15:27:49;;;;;;;2.17;2.17;;;34.60;77.60;;;;;;4992547;28;20570;-69
2023/07/09 15:30:19;;;;;;;2.70;2.60;;;34.50;76.20;;;;;;4992226;28;20459;-69
2023/07/09 15:32:47;;;;;;;2.10;2.10;;;34.30;76.30;;;;;;4993596;28;20455;-70
2023/07/09 15:35:16;;;;;;;2.70;2.60;;;34.20;77.10;;;;;;4991946;28;20467;-70
2023/07/09 15:37:43;;;;;;;2.47;2.47;;;34.20;77.20;;;;;;4992497;28;20467;-70
2023/07/09 15:40:20;;;;;;;2.13;2.00;;;34.10;76.90;;;;;;4991782;28;20467;-69
2023/07/09 15:42:48;;;;;;;2.53;2.50;;;34.00;76.60;;;;;;4997126;28;20485;-69
2023/07/09 15:45:17;;;;;;;3.00;2.90;;;33.90;77.10;;;;;;4994470;28;20474;-69
2023/07/09 15:47:44;;;;;;;2.80;2.70;;;33.80;77.10;;;;;;4992361;28;20554;-70
2023/07/09 15:50:18;;;;;;;2.80;2.70;;;33.80;77.20;;;;;;4992183;28;20498;-69
2023/07/09 15:52:46;;;;;;;2.70;2.60;;;33.80;78.00;;;;;;4992298;28;20835;-69
2023/07/09 15:55:16;;;;;;;2.30;2.23;;;33.80;78.00;;;;;;4991286;28;20986;-69
2023/07/09 15:57:44;;;;;;;2.33;2.20;;;33.80;78.40;;;;;;4992237;28;20545;-69
2023/07/09 16:00:17;;;;;;;2.43;2.33;;;33.80;77.60;;;;;;4991624;28;20463;-69
2023/07/09 16:02:44;;;;;;;2.80;2.70;;;33.80;79.10;;;;;;4992074;28;20511;-70
2023/07/09 16:05:23;;;;;;;2.77;2.67;;;33.80;79.90;;;;;;4991691;28;20892;-69
2023/07/09 16:07:50;;;;;;;2.50;2.50;;;33.70;77.70;;;;;;4992344;28;20462;-69
2023/07/09 16:10:18;;;;;;;2.07;2.03;;;33.60;76.90;;;;;;4991362;28;20466;-69
2023/07/09 16:12:47;;;;;;;2.50;2.40;;;33.50;77.90;;;;;;4992245;28;20454;-69
2023/07/09 16:15:14;;;;;;;2.23;2.23;;;33.40;79.10;;;;;;4991465;28;20467;-69
2023/07/09 16:17:41;;;;;;;2.53;2.43;;;33.20;81.10;;;;;;4991855;28;20556;-69
2023/07/09 16:20:11;;;;;;;2.73;2.53;;;33.10;82.20;;;;;;4991569;28;20482;-69
2023/07/09 16:22:41;;;;;;;2.80;2.80;;;33.10;82.60;;;;;;4992223;28;20498;-68
2023/07/09 16:25:16;;;;;;;2.70;2.70;;;33.00;83.10;;;;;;4991206;28;20462;-68
2023/07/09 16:27:44;;;;;;;3.10;2.90;;;33.00;83.00;;;;;;4991753;28;20789;-68
2023/07/09 16:30:17;;;;;;;3.20;3.10;;;32.90;84.30;;;;;;4991535;28;20474;-68
2023/07/09 16:32:44;;;;;;;2.80;2.70;;;32.90;82.90;;;;;;4991783;28;20778;-69
2023/07/09 16:35:16;;;;;;;2.77;2.67;;;32.80;83.80;;;;;;4992254;28;20844;-69
2023/07/09 16:37:45;;;;;;;3.90;3.60;;;32.80;84.40;;;;;;4992443;28;20510;-69
2023/07/09 16:40:16;;;;;;;2.67;2.60;;;32.80;83.60;;;;;;4992393;28;20463;-69
2023/07/09 16:42:43;;;;;;;3.00;2.90;;;32.70;83.20;;;;;;4996162;28;20577;-70
2023/07/09 16:45:11;;;;;;;2.57;2.47;;;32.70;84.00;;;;;;5011445;28;20470;-70
2023/07/09 16:47:39;;;;;;;2.80;2.70;;;32.70;85.10;;;;;;5012993;28;20466;-69
2023/07/09 16:50:06;;;;;;;3.50;3.30;;;32.60;84.50;;;;;;5019823;28;20498;-69
2023/07/09 16:52:33;;;;;;;2.57;2.47;;;32.60;85.60;;;;;;5020463;28;20493;-70
2023/07/09 16:55:01;;;;;;;2.77;2.70;;;32.60;85.30;;;;;;5015808;28;20530;-69
2023/07/09 16:57:31;;;;;;;2.30;2.30;;;32.50;84.90;;;;;;5010760;28;20462;-70
2023/07/09 17:00:21;;;;;;;3.00;2.83;;;32.50;85.10;;;;;;5010613;28;20469;-69